Time;durP1;ratioP1;P1;durP2;ratioP2;P2;SDS_P1;SDS_P2;PMS_P1;PMS_P2;Temp;Humidity;BMP_temperature;BMP_pressure;BME280_temperature;BME280_humidity;BME280_pressure;Samples;Min_cycle;Max_cycle;Signal;HPM_P1;HPM_P2
2022/08/12 00:43:23;;;;;;;1.08;0.70;;;;;;;;;;7392659;19;20030;-76
2022/08/12 00:48:33;;;;;;;0.85;0.60;;;;;;;;;;7393264;19;20387;-76
2022/08/12 00:51:01;;;;;;;3.53;1.10;;;;;;;;;;7392534;19;20011;-77
2022/08/12 00:53:28;;;;;;;2.28;1.00;;;;;;;;;;7382531;19;20011;-77
2022/08/12 00:55:56;;;;;;;0.82;0.82;;;;;;;;;;7385799;19;20366;-76
2022/08/12 00:58:24;;;;;;;1.10;1.00;;;;;;;;;;7393030;19;20027;-76
2022/08/12 01:00:50;;;;;;;1.40;0.70;;;;;;;;;;7391452;19;20369;-76
2022/08/12 01:03:19;;;;;;;1.13;1.08;;;;;;;;;;7391744;19;20045;-76
2022/08/12 01:11:28;;;;;;;1.73;1.40;;;;;;;;;;7391356;19;20048;-77
2022/08/12 01:13:55;;;;;;;1.60;1.05;;;;;;;;;;7390487;19;20015;-77
2022/08/12 01:16:21;;;;;;;1.48;1.20;;;;;;;;;;7391194;19;20482;-77
2022/08/12 01:18:48;;;;;;;3.80;1.70;;;;;;;;;;7390056;19;20099;-76
2022/08/12 01:21:50;;;;;;;1.80;1.35;;;;;;;;;;7389592;19;20022;-76
2022/08/12 01:24:53;;;;;;;1.77;1.30;;;;;;;;;;7389115;19;20014;-77
2022/08/12 01:27:20;;;;;;;2.90;1.40;;;;;;;;;;7392442;19;20030;-77
2022/08/12 01:29:50;;;;;;;2.08;1.33;;;;;;;;;;7390867;19;20010;-77
2022/08/12 01:32:19;;;;;;;4.05;1.38;;;;;;;;;;7393766;19;20399;-76
2022/08/12 01:34:53;;;;;;;3.65;1.38;;;;;;;;;;7387880;19;20007;-77
2022/08/12 01:37:23;;;;;;;1.83;1.13;;;;;;;;;;7394723;19;20014;-76
2022/08/12 01:39:53;;;;;;;3.22;1.27;;;;;;;;;;7385920;19;20022;-77
2022/08/12 01:42:21;;;;;;;1.00;0.90;;;;;;;;;;7384879;19;20500;-77
2022/08/12 01:44:48;;;;;;;1.13;0.85;;;;;;;;;;7381532;19;20002;-77
2022/08/12 01:47:49;;;;;;;5.18;1.10;;;;;;;;;;7383894;19;20372;-78
2022/08/12 01:50:20;;;;;;;1.75;0.80;;;;;;;;;;7381973;19;20018;-76
2022/08/12 01:53:07;;;;;;;1.50;1.27;;;;;;;;;;7382274;19;20452;-77
2022/08/12 01:55:35;;;;;;;3.92;1.05;;;;;;;;;;7381486;19;20014;-76
2022/08/12 01:59:45;;;;;;;0.82;0.82;;;;;;;;;;7379313;19;20011;-77
2022/08/12 02:01:19;;;;;;;2.45;1.10;;;;;;;;;;7385480;19;20022;-76
2022/08/12 02:13:22;;;;;;;1.50;1.10;;;;;;;;;;7380908;19;20030;-77
2022/08/12 02:16:06;;;;;;;1.45;1.10;;;;;;;;;;7380148;19;20010;-77
2022/08/12 02:18:57;;;;;;;2.13;1.27;;;;;;;;;;7380476;19;20006;-77
2022/08/12 02:21:52;;;;;;;3.20;1.20;;;;;;;;;;7383100;19;21261;-76
2022/08/12 02:24:22;;;;;;;1.40;0.93;;;;;;;;;;7380381;19;20155;-77
2022/08/12 02:26:49;;;;;;;1.30;1.20;;;;;;;;;;7381035;19;20334;-78
2022/08/12 02:29:14;;;;;;;3.45;1.20;;;;;;;;;;7389977;19;20010;-77
2022/08/12 02:31:44;;;;;;;1.95;1.40;;;;;;;;;;7387055;19;21343;-76
2022/08/12 02:34:11;;;;;;;1.58;1.13;;;;;;;;;;7380286;19;20017;-77
2022/08/12 02:36:38;;;;;;;1.52;1.15;;;;;;;;;;7382944;19;19998;-76
2022/08/12 02:39:08;;;;;;;1.30;1.00;;;;;;;;;;7389342;19;20579;-76
2022/08/12 02:41:39;;;;;;;1.75;0.75;;;;;;;;;;7389629;19;20018;-76
2022/08/12 02:44:08;;;;;;;5.15;2.08;;;;;;;;;;7387961;19;20030;-77
2022/08/12 02:46:35;;;;;;;2.25;1.52;;;;;;;;;;7387685;19;20006;-77
2022/08/12 02:49:09;;;;;;;1.60;1.30;;;;;;;;;;7389889;19;20026;-77
2022/08/12 02:51:40;;;;;;;1.65;1.13;;;;;;;;;;7381620;19;20006;-77
2022/08/12 02:54:06;;;;;;;1.00;1.00;;;;;;;;;;7379242;19;20490;-76
2022/08/12 02:56:39;;;;;;;1.30;1.10;;;;;;;;;;7381221;19;20010;-76
2022/08/12 02:59:09;;;;;;;1.85;1.42;;;;;;;;;;7380101;19;20482;-76
2022/08/12 03:01:45;;;;;;;1.25;1.10;;;;;;;;;;7379617;19;20085;-77
2022/08/12 03:04:16;;;;;;;1.33;1.20;;;;;;;;;;7385451;19;20042;-77
2022/08/12 03:06:49;;;;;;;2.00;1.10;;;;;;;;;;7390037;19;20011;-76
2022/08/12 03:09:15;;;;;;;1.60;1.08;;;;;;;;;;7386279;19;20010;-77
2022/08/12 03:11:48;;;;;;;1.15;1.05;;;;;;;;;;7387705;19;20537;-77
2022/08/12 03:14:16;;;;;;;1.00;0.88;;;;;;;;;;7386602;19;20010;-76
2022/08/12 03:16:48;;;;;;;0.70;0.70;;;;;;;;;;7389823;19;20011;-76
2022/08/12 03:19:18;;;;;;;3.40;1.00;;;;;;;;;;7386286;19;20006;-76
2022/08/12 03:21:45;;;;;;;1.05;1.00;;;;;;;;;;7386750;19;20390;-76
2022/08/12 03:24:15;;;;;;;1.02;0.85;;;;;;;;;;7384442;19;20010;-77
2022/08/12 03:26:44;;;;;;;1.50;1.15;;;;;;;;;;7387397;19;20021;-76
2022/08/12 03:29:11;;;;;;;1.20;1.10;;;;;;;;;;7385782;19;21627;-76
2022/08/12 03:31:36;;;;;;;2.63;1.20;;;;;;;;;;7386284;19;20034;-76
2022/08/12 03:34:11;;;;;;;4.47;1.50;;;;;;;;;;7385001;19;20011;-77
2022/08/12 03:36:38;;;;;;;2.92;1.45;;;;;;;;;;7386612;19;20011;-77
2022/08/12 03:42:18;;;;;;;1.77;1.40;;;;;;;;;;7388998;19;20024;-77
2022/08/12 04:01:56;;;;;;;3.28;1.50;;;;;;;;;;7390357;19;20022;-76
2022/08/12 04:04:34;;;;;;;1.88;1.10;;;;;;;;;;7389615;19;20015;-76
2022/08/12 04:07:06;;;;;;;1.60;0.90;;;;;;;;;;7393936;19;20012;-76
2022/08/12 04:09:33;;;;;;;1.77;1.17;;;;;;;;;;7389860;19;20036;-77
2022/08/12 04:14:43;;;;;;;2.15;1.40;;;;;;;;;;7381741;19;20040;-76
2022/08/12 04:17:08;;;;;;;2.80;1.23;;;;;;;;;;7385891;19;20007;-77
2022/08/12 04:19:35;;;;;;;3.47;1.67;;;;;;;;;;7384851;19;20005;-77
2022/08/12 04:22:01;;;;;;;2.20;1.27;;;;;;;;;;7385255;19;20013;-77
2022/08/12 04:24:27;;;;;;;1.58;1.20;;;;;;;;;;7391777;19;20074;-76
2022/08/12 04:26:54;;;;;;;2.42;1.30;;;;;;;;;;7394586;19;20027;-77
2022/08/12 04:29:20;;;;;;;3.72;1.48;;;;;;;;;;7391963;19;20461;-76
2022/08/12 04:31:46;;;;;;;3.08;1.45;;;;;;;;;;7394004;19;20013;-76
2022/08/12 04:34:11;;;;;;;1.42;1.08;;;;;;;;;;7389688;19;20402;-76
2022/08/12 04:36:39;;;;;;;4.18;1.30;;;;;;;;;;7391284;19;19991;-76
2022/08/12 04:39:06;;;;;;;1.63;1.10;;;;;;;;;;7390251;19;20002;-77
2022/08/12 04:41:33;;;;;;;2.75;1.20;;;;;;;;;;7392607;19;20030;-76
2022/08/12 04:43:58;;;;;;;4.35;1.45;;;;;;;;;;7393443;19;20007;-77
2022/08/12 04:46:24;;;;;;;1.23;1.10;;;;;;;;;;7393883;19;20011;-77
2022/08/12 04:48:51;;;;;;;1.38;0.98;;;;;;;;;;7394668;19;20002;-77
2022/08/12 04:51:18;;;;;;;2.30;1.40;;;;;;;;;;7390988;19;20010;-76
2022/08/12 04:53:46;;;;;;;4.50;1.40;;;;;;;;;;7388881;19;20009;-76
2022/08/12 04:56:12;;;;;;;1.35;1.00;;;;;;;;;;7385143;19;20010;-76
2022/08/12 04:58:38;;;;;;;1.23;1.10;;;;;;;;;;7383402;19;20035;-77
2022/08/12 05:01:05;;;;;;;1.52;1.00;;;;;;;;;;7383895;19;20494;-77
2022/08/12 05:03:30;;;;;;;4.28;1.25;;;;;;;;;;7384373;19;20031;-77
2022/08/12 05:05:56;;;;;;;2.13;1.13;;;;;;;;;;7385869;19;20006;-77
2022/08/12 05:08:24;;;;;;;1.92;1.20;;;;;;;;;;7383025;19;20006;-77
2022/08/12 05:10:50;;;;;;;1.45;1.10;;;;;;;;;;7384928;19;20014;-77
2022/08/12 05:13:18;;;;;;;1.75;1.35;;;;;;;;;;7383209;19;20010;-76
2022/08/12 05:15:44;;;;;;;4.07;1.30;;;;;;;;;;7385990;19;20081;-76
2022/08/12 05:18:10;;;;;;;1.80;0.90;;;;;;;;;;7382581;19;20416;-77
2022/08/12 05:20:36;;;;;;;4.75;2.20;;;;;;;;;;7383448;19;20010;-77
2022/08/12 05:23:10;;;;;;;2.55;1.40;;;;;;;;;;7385507;19;20028;-76
2022/08/12 05:25:36;;;;;;;2.08;1.00;;;;;;;;;;7384546;19;20025;-76
2022/08/12 05:28:04;;;;;;;4.20;1.65;;;;;;;;;;7391650;19;20010;-80
2022/08/12 05:30:31;;;;;;;1.40;1.00;;;;;;;;;;7393212;19;20002;-79
2022/08/12 05:32:57;;;;;;;4.68;1.35;;;;;;;;;;7394664;19;20014;-80
2022/08/12 05:35:22;;;;;;;7.22;1.60;;;;;;;;;;7395547;19;20038;-78
2022/08/12 05:38:54;;;;;;;0.98;0.90;;;;;;;;;;7395858;19;19991;-80
2022/08/12 05:40:33;;;;;;;2.38;1.23;;;;;;;;;;7391963;19;20018;-79
2022/08/12 05:42:59;;;;;;;1.80;1.13;;;;;;;;;;7393531;19;20031;-79
2022/08/12 05:45:24;;;;;;;3.17;1.33;;;;;;;;;;7395419;19;20014;-79
2022/08/12 05:47:49;;;;;;;5.40;1.90;;;;;;;;;;7389956;19;20006;-80
2022/08/12 05:50:15;;;;;;;2.80;1.23;;;;;;;;;;7387366;19;20007;-79
2022/08/12 05:52:40;;;;;;;1.40;1.30;;;;;;;;;;7389900;19;20006;-79
2022/08/12 05:55:06;;;;;;;2.83;1.38;;;;;;;;;;7389290;19;20321;-79
2022/08/12 05:57:32;;;;;;;2.10;1.20;;;;;;;;;;7387860;19;20664;-80
2022/08/12 05:59:57;;;;;;;1.10;1.00;;;;;;;;;;7385317;19;20002;-79
2022/08/12 06:02:22;;;;;;;3.10;1.20;;;;;;;;;;7387438;19;20010;-79
2022/08/12 06:04:52;;;;;;;1.48;1.30;;;;;;;;;;7381472;19;20466;-79
2022/08/12 06:07:17;;;;;;;1.33;1.23;;;;;;;;;;7391850;19;20014;-79
2022/08/12 06:09:43;;;;;;;2.50;1.42;;;;;;;;;;7390734;19;20013;-79
2022/08/12 06:12:08;;;;;;;1.70;1.20;;;;;;;;;;7392947;19;20002;-78
2022/08/12 06:14:35;;;;;;;1.70;1.00;;;;;;;;;;7393200;19;20026;-79
2022/08/12 06:17:01;;;;;;;1.85;1.25;;;;;;;;;;7391683;19;20010;-78
2022/08/12 06:19:28;;;;;;;1.23;1.13;;;;;;;;;;7388659;19;20014;-79
2022/08/12 06:21:53;;;;;;;1.88;1.00;;;;;;;;;;7383240;19;20031;-79
2022/08/12 06:24:23;;;;;;;2.38;0.93;;;;;;;;;;7383589;19;20014;-79
2022/08/12 06:26:49;;;;;;;3.50;1.05;;;;;;;;;;7387771;19;20010;-80
2022/08/12 06:29:18;;;;;;;2.97;1.33;;;;;;;;;;7392140;19;20010;-79
2022/08/12 06:31:49;;;;;;;3.20;1.17;;;;;;;;;;7384105;19;20022;-80
2022/08/12 06:34:16;;;;;;;1.38;1.13;;;;;;;;;;7387728;19;20362;-79
2022/08/12 06:36:43;;;;;;;1.70;0.90;;;;;;;;;;7386266;19;20073;-79
2022/08/12 06:39:11;;;;;;;2.30;1.05;;;;;;;;;;7382544;19;20002;-77
2022/08/12 06:44:21;;;;;;;1.70;1.30;;;;;;;;;;7387097;19;20023;-77
2022/08/12 06:46:46;;;;;;;10.20;1.20;;;;;;;;;;7389869;19;20011;-77
2022/08/12 06:49:12;;;;;;;1.05;0.95;;;;;;;;;;7389566;19;20007;-77
2022/08/12 06:51:38;;;;;;;1.52;1.20;;;;;;;;;;7388220;19;20003;-77
2022/08/12 06:54:03;;;;;;;1.40;1.30;;;;;;;;;;7385244;19;20351;-77
2022/08/12 06:56:29;;;;;;;1.95;1.15;;;;;;;;;;7390919;19;20517;-77
2022/08/12 06:58:56;;;;;;;3.13;1.15;;;;;;;;;;7387036;19;20062;-77
2022/08/12 07:01:22;;;;;;;1.23;0.98;;;;;;;;;;7389549;19;20015;-77
2022/08/12 07:03:50;;;;;;;1.65;1.13;;;;;;;;;;7387831;19;20062;-77
2022/08/12 07:06:15;;;;;;;1.02;0.90;;;;;;;;;;7386853;19;20495;-77
2022/08/12 07:08:42;;;;;;;1.90;0.85;;;;;;;;;;7384878;19;19995;-77
2022/08/12 07:11:10;;;;;;;1.52;0.98;;;;;;;;;;7387201;19;20033;-78
2022/08/12 07:13:45;;;;;;;1.83;0.90;;;;;;;;;;7389584;19;20007;-77
2022/08/12 07:16:13;;;;;;;;;;;;;;;;;;7388663;19;20115;-77
2022/08/12 07:18:39;;;;;;;6.72;1.38;;;;;;;;;;7386381;19;19970;-77
2022/08/12 07:21:06;;;;;;;1.35;1.00;;;;;;;;;;7387622;19;20024;-77
2022/08/12 07:23:33;;;;;;;2.08;1.10;;;;;;;;;;7387391;19;20035;-78
2022/08/12 07:26:01;;;;;;;1.63;1.02;;;;;;;;;;7386645;19;20435;-77
2022/08/12 07:28:29;;;;;;;9.68;1.20;;;;;;;;;;7388716;19;20031;-77
2022/08/12 07:30:56;;;;;;;2.47;1.00;;;;;;;;;;7389682;19;20011;-77
2022/08/12 07:33:28;;;;;;;1.95;1.00;;;;;;;;;;7381027;19;20462;-77
2022/08/12 07:35:56;;;;;;;1.40;1.00;;;;;;;;;;7386850;19;20022;-77
2022/08/12 07:38:34;;;;;;;3.03;1.05;;;;;;;;;;7379565;19;21050;-78
2022/08/12 07:41:16;;;;;;;1.08;0.90;;;;;;;;;;7379876;19;20021;-77
2022/08/12 07:43:44;;;;;;;2.38;0.90;;;;;;;;;;7380870;19;20107;-78
2022/08/12 07:46:13;;;;;;;3.15;1.23;;;;;;;;;;7380343;19;20010;-78
2022/08/12 07:48:45;;;;;;;5.63;1.20;;;;;;;;;;7379350;19;20115;-77
2022/08/12 07:51:11;;;;;;;3.83;0.93;;;;;;;;;;7392487;19;20029;-78
2022/08/12 07:53:38;;;;;;;2.55;1.10;;;;;;;;;;7383251;19;20801;-77
2022/08/12 07:56:05;;;;;;;3.95;1.27;;;;;;;;;;7392107;19;20018;-77
2022/08/12 07:58:31;;;;;;;0.80;0.80;;;;;;;;;;7394332;19;20030;-77
2022/08/12 08:00:59;;;;;;;1.52;1.00;;;;;;;;;;7393938;19;20110;-77
2022/08/12 08:03:28;;;;;;;7.53;1.17;;;;;;;;;;7391529;19;20131;-77
2022/08/12 08:05:54;;;;;;;2.60;1.65;;;;;;;;;;7394118;19;20010;-77
2022/08/12 08:08:22;;;;;;;2.17;0.93;;;;;;;;;;7394785;19;20039;-77
2022/08/12 08:10:49;;;;;;;3.90;0.98;;;;;;;;;;7393662;19;20014;-76
2022/08/12 08:13:23;;;;;;;3.28;1.05;;;;;;;;;;7393945;19;20010;-77
2022/08/12 08:15:52;;;;;;;2.28;1.00;;;;;;;;;;7392678;19;20022;-77
2022/08/12 08:18:19;;;;;;;1.98;0.70;;;;;;;;;;7395010;19;20006;-77
2022/08/12 08:20:45;;;;;;;3.67;0.93;;;;;;;;;;7393515;19;20354;-77
2022/08/12 08:23:17;;;;;;;2.90;1.13;;;;;;;;;;7394023;19;20007;-76
2022/08/12 08:25:43;;;;;;;2.80;1.25;;;;;;;;;;7391969;19;20010;-76
2022/08/12 08:28:15;;;;;;;2.97;1.00;;;;;;;;;;7390099;19;20014;-77
2022/08/12 08:30:43;;;;;;;1.25;1.00;;;;;;;;;;7395104;19;20006;-77
2022/08/12 08:33:10;;;;;;;2.63;1.00;;;;;;;;;;7394722;19;20148;-77
2022/08/12 08:35:37;;;;;;;1.55;1.10;;;;;;;;;;7394639;19;20045;-76
2022/08/12 08:38:15;;;;;;;1.05;0.85;;;;;;;;;;7386201;19;20038;-76
2022/08/12 08:43:27;;;;;;;2.55;1.00;;;;;;;;;;7395193;19;20014;-76
2022/08/12 08:45:56;;;;;;;1.52;0.90;;;;;;;;;;7393411;19;20566;-76
2022/08/12 08:48:22;;;;;;;1.23;1.02;;;;;;;;;;7392762;19;20026;-76
2022/08/12 08:50:48;;;;;;;2.55;1.10;;;;;;;;;;7393946;19;20481;-76
2022/08/12 08:53:14;;;;;;;4.20;0.98;;;;;;;;;;7393553;19;20110;-76
2022/08/12 08:55:40;;;;;;;2.65;1.02;;;;;;;;;;7392775;19;20010;-76
2022/08/12 08:58:07;;;;;;;2.42;0.93;;;;;;;;;;7393086;19;20057;-76
2022/08/12 09:00:36;;;;;;;2.47;1.10;;;;;;;;;;7391982;19;20484;-76
2022/08/12 09:03:03;;;;;;;1.50;0.90;;;;;;;;;;7394492;19;20129;-76
2022/08/12 09:05:28;;;;;;;1.30;0.90;;;;;;;;;;7393733;19;20014;-76
2022/08/12 09:07:55;;;;;;;2.20;0.95;;;;;;;;;;7393051;19;20037;-76
2022/08/12 09:10:20;;;;;;;2.45;0.80;;;;;;;;;;7393386;19;20014;-76
2022/08/12 09:15:31;;;;;;;2.05;0.95;;;;;;;;;;7393210;19;20017;-76
2022/08/12 09:17:58;;;;;;;2.25;1.10;;;;;;;;;;7393670;19;20015;-77
2022/08/12 09:20:29;;;;;;;1.50;1.00;;;;;;;;;;7393991;19;20006;-77
2022/08/12 09:22:56;;;;;;;2.67;0.93;;;;;;;;;;7392253;19;20021;-77
2022/08/12 09:25:26;;;;;;;1.45;0.80;;;;;;;;;;7392467;19;20084;-77
2022/08/12 09:27:54;;;;;;;5.15;1.10;;;;;;;;;;7392164;19;20038;-77
2022/08/12 09:30:21;;;;;;;1.30;0.88;;;;;;;;;;7390926;19;20010;-77
2022/08/12 09:32:50;;;;;;;4.28;0.90;;;;;;;;;;7393028;19;20429;-77
2022/08/12 09:35:22;;;;;;;3.85;1.02;;;;;;;;;;7393688;19;20010;-77
2022/08/12 09:37:48;;;;;;;0.90;0.82;;;;;;;;;;7392797;19;20011;-77
2022/08/12 09:40:15;;;;;;;3.08;0.95;;;;;;;;;;7392486;19;20486;-77
2022/08/12 09:45:26;;;;;;;1.48;0.80;;;;;;;;;;7393078;19;20062;-77
2022/08/12 09:47:53;;;;;;;3.92;0.80;;;;;;;;;;7392215;19;20372;-77
2022/08/12 09:50:18;;;;;;;2.30;0.90;;;;;;;;;;7391246;19;20034;-77
2022/08/12 09:52:45;;;;;;;1.73;0.93;;;;;;;;;;7392648;19;19994;-77
2022/08/12 09:55:13;;;;;;;4.97;0.85;;;;;;;;;;7391503;19;20461;-77
2022/08/12 09:57:38;;;;;;;0.88;0.85;;;;;;;;;;7392271;19;20473;-76
2022/08/12 10:00:08;;;;;;;1.00;0.90;;;;;;;;;;7390686;19;20017;-77
2022/08/12 10:02:37;;;;;;;3.45;1.13;;;;;;;;;;7392806;19;20354;-77
2022/08/12 10:05:08;;;;;;;4.80;1.08;;;;;;;;;;7391685;19;20074;-76
2022/08/12 10:07:33;;;;;;;0.90;0.90;;;;;;;;;;7390961;19;20450;-76
2022/08/12 10:09:59;;;;;;;6.20;1.08;;;;;;;;;;7391756;19;20019;-77
2022/08/12 10:15:11;;;;;;;1.15;0.85;;;;;;;;;;7391770;19;20121;-77
2022/08/12 10:17:36;;;;;;;1.88;0.98;;;;;;;;;;7392069;19;20482;-76
2022/08/12 10:20:02;;;;;;;1.85;0.90;;;;;;;;;;7391637;19;20010;-77
2022/08/12 10:22:28;;;;;;;1.70;1.10;;;;;;;;;;7392324;19;20006;-77
2022/08/12 10:30:22;;;;;;;2.20;0.90;;;;;;;;;;7390539;19;20021;-77
2022/08/12 10:32:57;;;;;;;1.70;1.00;;;;;;;;;;7388713;19;20007;-77
2022/08/12 10:35:30;;;;;;;;;;;;;;;;;;7392830;19;20030;-77
2022/08/12 10:37:56;;;;;;;1.67;0.90;;;;;;;;;;7387836;19;19925;-77
2022/08/12 10:40:22;;;;;;;2.55;1.10;;;;;;;;;;7389555;19;20038;-78
2022/08/12 10:45:31;;;;;;;1.17;0.88;;;;;;;;;;7390110;19;20112;-77
2022/08/12 10:47:57;;;;;;;4.63;1.30;;;;;;;;;;7390146;19;20089;-76
2022/08/12 10:50:23;;;;;;;1.85;0.82;;;;;;;;;;7385138;19;20006;-77
2022/08/12 10:52:48;;;;;;;1.65;1.10;;;;;;;;;;7381103;19;20018;-77
2022/08/12 10:55:14;;;;;;;2.35;0.90;;;;;;;;;;7386492;19;20029;-77
2022/08/12 10:57:39;;;;;;;0.85;0.85;;;;;;;;;;7378992;19;20054;-77
2022/08/12 11:00:06;;;;;;;0.98;0.85;;;;;;;;;;7378924;19;20015;-77
2022/08/12 11:02:31;;;;;;;2.05;1.00;;;;;;;;;;7377440;19;20620;-77
2022/08/12 11:04:57;;;;;;;1.48;0.90;;;;;;;;;;7380282;19;20013;-77
2022/08/12 11:07:23;;;;;;;0.88;0.80;;;;;;;;;;7378955;19;20102;-77
2022/08/12 11:09:49;;;;;;;0.80;0.80;;;;;;;;;;7387506;19;20027;-77
2022/08/12 11:12:15;;;;;;;2.90;0.85;;;;;;;;;;7389431;19;20014;-77
2022/08/12 11:14:44;;;;;;;1.55;0.70;;;;;;;;;;7386676;19;20014;-77
2022/08/12 11:17:13;;;;;;;1.90;0.80;;;;;;;;;;7381297;19;20462;-77
2022/08/12 11:19:40;;;;;;;2.83;0.80;;;;;;;;;;7385714;19;20371;-77
2022/08/12 11:22:08;;;;;;;3.72;0.98;;;;;;;;;;7380455;19;20370;-78
2022/08/12 11:24:34;;;;;;;0.80;0.80;;;;;;;;;;7389867;19;20011;-78
2022/08/12 11:27:02;;;;;;;0.90;0.70;;;;;;;;;;7392909;19;20017;-78
2022/08/12 11:29:28;;;;;;;1.38;0.80;;;;;;;;;;7389456;19;20022;-77
2022/08/12 11:31:54;;;;;;;1.88;0.70;;;;;;;;;;7390088;19;20006;-78
2022/08/12 11:34:20;;;;;;;2.28;1.05;;;;;;;;;;7390658;19;20039;-78
2022/08/12 11:36:56;;;;;;;1.77;0.90;;;;;;;;;;7390781;19;20014;-77
2022/08/12 11:39:23;;;;;;;1.13;0.80;;;;;;;;;;7396525;19;20018;-77
2022/08/12 11:41:48;;;;;;;0.80;0.80;;;;;;;;;;7394070;19;20017;-78
2022/08/12 11:44:15;;;;;;;1.33;0.80;;;;;;;;;;7390332;19;20018;-77
2022/08/12 11:46:41;;;;;;;3.70;0.80;;;;;;;;;;7388324;19;20010;-77
2022/08/12 11:49:08;;;;;;;2.13;0.70;;;;;;;;;;7385793;19;20515;-78
2022/08/12 11:51:35;;;;;;;0.60;0.60;;;;;;;;;;7385485;19;20405;-78
2022/08/12 11:54:00;;;;;;;1.30;0.90;;;;;;;;;;7385579;19;20018;-77
2022/08/12 11:56:26;;;;;;;6.82;0.90;;;;;;;;;;7397231;19;20007;-77
2022/08/12 11:58:51;;;;;;;1.50;0.85;;;;;;;;;;7387808;19;20554;-77
2022/08/12 12:01:17;;;;;;;1.95;0.88;;;;;;;;;;7391815;19;20013;-77
2022/08/12 12:03:42;;;;;;;4.88;0.75;;;;;;;;;;7384816;19;20485;-77
2022/08/12 12:06:08;;;;;;;3.65;1.17;;;;;;;;;;7394807;19;20006;-75
2022/08/12 12:08:34;;;;;;;1.33;0.70;;;;;;;;;;7390303;19;20006;-78
2022/08/12 12:10:59;;;;;;;2.47;0.85;;;;;;;;;;7390421;19;20011;-76
2022/08/12 12:13:25;;;;;;;5.05;1.10;;;;;;;;;;7394517;19;20015;-76
2022/08/12 12:15:50;;;;;;;1.58;0.90;;;;;;;;;;7387507;19;20484;-76
2022/08/12 12:18:24;;;;;;;1.80;0.82;;;;;;;;;;7390391;19;20006;-76
2022/08/12 12:20:50;;;;;;;3.78;0.68;;;;;;;;;;7391584;19;20441;-76
2022/08/12 12:23:16;;;;;;;1.00;0.70;;;;;;;;;;7384832;19;20019;-75
2022/08/12 12:25:42;;;;;;;0.73;0.50;;;;;;;;;;7387766;19;20014;-76
2022/08/12 12:28:07;;;;;;;2.45;0.80;;;;;;;;;;7380414;19;20624;-76
2022/08/12 12:30:33;;;;;;;0.50;0.50;;;;;;;;;;7391859;19;20017;-77
2022/08/12 12:32:58;;;;;;;0.50;0.50;;;;;;;;;;7390832;19;20019;-76
2022/08/12 12:35:24;;;;;;;3.25;0.70;;;;;;;;;;7387039;19;20010;-77
2022/08/12 12:38:00;;;;;;;2.05;0.80;;;;;;;;;;7392665;19;20081;-77
2022/08/12 12:43:47;;;;;;;1.25;0.60;;;;;;;;;;7392649;19;20476;-76
2022/08/12 12:46:13;;;;;;;2.58;0.60;;;;;;;;;;7394628;19;20011;-76
2022/08/12 12:48:38;;;;;;;0.68;0.68;;;;;;;;;;7385892;19;20034;-76
2022/08/12 12:51:15;;;;;;;0.85;0.52;;;;;;;;;;7382903;19;20011;-76
2022/08/12 12:53:48;;;;;;;2.58;0.75;;;;;;;;;;7380562;19;20010;-76
2022/08/12 12:56:22;;;;;;;1.25;0.65;;;;;;;;;;7380617;19;20102;-76
2022/08/12 12:58:53;;;;;;;0.77;0.60;;;;;;;;;;7384012;19;20018;-76
2022/08/12 13:01:22;;;;;;;2.13;0.60;;;;;;;;;;7389517;19;20481;-76
2022/08/12 13:03:52;;;;;;;0.57;0.57;;;;;;;;;;7390150;19;20078;-76
2022/08/12 13:06:24;;;;;;;0.47;0.47;;;;;;;;;;7391512;19;20401;-77
2022/08/12 13:08:53;;;;;;;0.60;0.60;;;;;;;;;;7390267;19;20082;-76
2022/08/12 13:11:21;;;;;;;0.50;0.47;;;;;;;;;;7385272;19;20006;-77
2022/08/12 13:13:52;;;;;;;1.15;0.65;;;;;;;;;;7385003;19;20014;-76
2022/08/12 13:16:19;;;;;;;1.65;0.60;;;;;;;;;;7381784;19;20115;-76
2022/08/12 13:18:46;;;;;;;0.50;0.50;;;;;;;;;;7384250;19;20009;-76
2022/08/12 13:21:12;;;;;;;5.63;0.70;;;;;;;;;;7389964;19;20007;-76
2022/08/12 13:23:38;;;;;;;0.50;0.50;;;;;;;;;;7387206;19;20066;-77
2022/08/12 13:26:04;;;;;;;5.18;0.60;;;;;;;;;;7388601;19;20003;-76
2022/08/12 13:28:30;;;;;;;0.63;0.50;;;;;;;;;;7389606;19;20120;-76
2022/08/12 13:30:59;;;;;;;1.88;0.40;;;;;;;;;;7386384;19;20426;-76
2022/08/12 13:33:26;;;;;;;0.57;0.32;;;;;;;;;;7390867;19;20111;-76
2022/08/12 13:36:00;;;;;;;0.30;0.30;;;;;;;;;;7385645;19;20015;-77
2022/08/12 13:38:51;;;;;;;0.30;0.30;;;;;;;;;;7382936;19;20438;-77
2022/08/12 13:41:31;;;;;;;0.40;0.32;;;;;;;;;;7389506;19;20010;-77
2022/08/12 13:44:01;;;;;;;0.28;0.22;;;;;;;;;;7381607;19;20027;-77
2022/08/12 13:46:26;;;;;;;1.50;0.35;;;;;;;;;;7385084;19;20011;-76
2022/08/12 13:48:55;;;;;;;0.82;0.50;;;;;;;;;;7387395;19;20014;-77
2022/08/12 13:51:21;;;;;;;0.52;0.38;;;;;;;;;;7386110;19;20007;-76
2022/08/12 13:53:46;;;;;;;1.20;0.45;;;;;;;;;;7381700;19;20038;-76
2022/08/12 13:56:13;;;;;;;0.35;0.35;;;;;;;;;;7383031;19;20407;-77
2022/08/12 13:58:49;;;;;;;2.45;0.40;;;;;;;;;;7389227;19;20010;-77
2022/08/12 14:01:16;;;;;;;0.13;0.13;;;;;;;;;;7391436;19;20022;-77
2022/08/12 14:03:43;;;;;;;0.35;0.30;;;;;;;;;;7380713;19;20010;-76
2022/08/12 14:06:11;;;;;;;0.55;0.35;;;;;;;;;;7386714;19;19999;-77
2022/08/12 14:08:36;;;;;;;0.22;0.22;;;;;;;;;;7379769;19;20014;-77
2022/08/12 14:11:01;;;;;;;0.30;0.30;;;;;;;;;;7386408;19;19998;-77
2022/08/12 14:13:29;;;;;;;0.30;0.30;;;;;;;;;;7388017;19;20020;-77
2022/08/12 14:15:57;;;;;;;0.40;0.38;;;;;;;;;;7381670;19;20517;-77
2022/08/12 14:18:24;;;;;;;0.30;0.30;;;;;;;;;;7388231;19;20537;-76
2022/08/12 14:20:57;;;;;;;0.20;0.20;;;;;;;;;;7388144;19;20014;-78
2022/08/12 14:23:24;;;;;;;1.85;0.40;;;;;;;;;;7385080;19;20022;-78
2022/08/12 14:25:54;;;;;;;1.45;0.30;;;;;;;;;;7384773;19;20010;-78
2022/08/12 14:28:22;;;;;;;0.40;0.40;;;;;;;;;;7392180;19;20015;-77
2022/08/12 14:31:01;;;;;;;0.17;0.17;;;;;;;;;;7389865;19;20006;-76
2022/08/12 14:33:35;;;;;;;4.68;0.30;;;;;;;;;;7385325;19;20010;-76
2022/08/12 14:36:03;;;;;;;1.02;0.43;;;;;;;;;;7388244;19;20014;-76
2022/08/12 14:38:38;;;;;;;0.90;0.43;;;;;;;;;;7390550;19;20010;-78
2022/08/12 14:41:06;;;;;;;0.65;0.60;;;;;;;;;;7388076;19;20117;-77
2022/08/12 14:43:34;;;;;;;0.25;0.25;;;;;;;;;;7385669;19;20011;-77
2022/08/12 14:46:03;;;;;;;0.30;0.30;;;;;;;;;;7388622;19;20006;-76
2022/08/12 14:48:28;;;;;;;0.77;0.40;;;;;;;;;;7385538;19;20023;-77
2022/08/12 14:50:54;;;;;;;0.43;0.43;;;;;;;;;;7388875;19;20015;-77
2022/08/12 14:53:19;;;;;;;0.38;0.38;;;;;;;;;;7382082;19;20021;-77
2022/08/12 14:55:48;;;;;;;0.40;0.40;;;;;;;;;;7385631;19;20023;-77
2022/08/12 14:58:18;;;;;;;0.40;0.40;;;;;;;;;;7384472;19;20018;-77
2022/08/12 15:03:30;;;;;;;;;;;;;;;;;;7377747;19;20369;-78
2022/08/12 15:05:58;;;;;;;0.40;0.35;;;;;;;;;;7388578;19;19952;-77
2022/08/12 15:08:35;;;;;;;0.20;0.20;;;;;;;;;;7391664;19;20029;-78
2022/08/12 15:11:02;;;;;;;0.40;0.40;;;;;;;;;;7389358;19;20022;-79
2022/08/12 15:13:30;;;;;;;0.40;0.40;;;;;;;;;;7380065;19;20098;-79
2022/08/12 15:15:57;;;;;;;0.75;0.50;;;;;;;;;;7389027;19;20350;-78
2022/08/12 15:18:23;;;;;;;0.30;0.30;;;;;;;;;;7386955;19;20022;-77
2022/08/12 15:20:51;;;;;;;0.43;0.43;;;;;;;;;;7388840;19;20025;-76
2022/08/12 15:23:17;;;;;;;0.60;0.60;;;;;;;;;;7390666;19;20014;-77
2022/08/12 15:25:44;;;;;;;0.93;0.47;;;;;;;;;;7389333;19;20010;-77
2022/08/12 15:28:09;;;;;;;0.40;0.40;;;;;;;;;;7390420;19;20037;-78
2022/08/12 15:30:39;;;;;;;0.43;0.40;;;;;;;;;;7391121;19;20553;-79
2022/08/12 15:33:08;;;;;;;0.45;0.45;;;;;;;;;;7380654;19;20025;-78
2022/08/12 15:35:34;;;;;;;0.75;0.40;;;;;;;;;;7389754;19;20006;-77
2022/08/12 15:38:10;;;;;;;1.88;0.55;;;;;;;;;;7387655;19;20010;-78
2022/08/12 15:40:38;;;;;;;0.70;0.70;;;;;;;;;;7390553;19;20042;-77
2022/08/12 15:43:05;;;;;;;1.05;0.50;;;;;;;;;;7391501;19;20058;-78
2022/08/12 15:45:32;;;;;;;0.50;0.50;;;;;;;;;;7390538;19;20010;-77
2022/08/12 15:47:59;;;;;;;3.25;0.70;;;;;;;;;;7390315;19;20022;-76
2022/08/12 15:50:27;;;;;;;1.48;0.60;;;;;;;;;;7382953;19;20040;-78
2022/08/12 15:52:53;;;;;;;1.38;0.40;;;;;;;;;;7391609;19;20050;-78
2022/08/12 15:55:19;;;;;;;0.45;0.45;;;;;;;;;;7393800;19;20017;-78
2022/08/12 15:57:49;;;;;;;1.55;0.40;;;;;;;;;;7394374;19;20014;-78
2022/08/12 16:00:15;;;;;;;1.83;0.50;;;;;;;;;;7388461;19;20070;-77
2022/08/12 16:02:45;;;;;;;0.60;0.60;;;;;;;;;;7390071;19;20017;-76
2022/08/12 16:05:12;;;;;;;0.82;0.60;;;;;;;;;;7384102;19;20045;-76
2022/08/12 16:07:37;;;;;;;1.75;0.60;;;;;;;;;;7388493;19;20011;-76
2022/08/12 16:10:21;;;;;;;1.75;0.60;;;;;;;;;;7385076;19;20038;-79
2022/08/12 16:12:48;;;;;;;0.63;0.50;;;;;;;;;;7389897;19;19999;-76
2022/08/12 16:15:17;;;;;;;1.02;0.47;;;;;;;;;;7386943;19;20449;-76
2022/08/12 16:17:54;;;;;;;1.35;0.47;;;;;;;;;;7385739;19;20041;-77
2022/08/12 16:20:26;;;;;;;0.77;0.40;;;;;;;;;;7390606;19;20010;-77
2022/08/12 16:22:57;;;;;;;0.95;0.50;;;;;;;;;;7388896;19;20011;-76
2022/08/12 16:25:23;;;;;;;0.93;0.30;;;;;;;;;;7390183;19;20011;-77
2022/08/12 16:27:50;;;;;;;0.40;0.40;;;;;;;;;;7389862;19;20390;-77
2022/08/12 16:30:19;;;;;;;2.33;0.40;;;;;;;;;;7392871;19;20010;-76
2022/08/12 16:32:46;;;;;;;0.52;0.50;;;;;;;;;;7395768;19;20015;-77
2022/08/12 16:35:12;;;;;;;0.50;0.47;;;;;;;;;;7394657;19;20018;-77
2022/08/12 16:37:37;;;;;;;1.48;0.50;;;;;;;;;;7391059;19;20011;-77
2022/08/12 16:40:04;;;;;;;0.35;0.32;;;;;;;;;;7392369;19;20003;-76
2022/08/12 16:42:30;;;;;;;0.50;0.50;;;;;;;;;;7391043;19;20070;-77